Time;durP1;ratioP1;P1;durP2;ratioP2;P2;SDS_P1;SDS_P2;PMS_P1;PMS_P2;Temp;Humidity;BMP_temperature;BMP_pressure;BME280_temperature;BME280_humidity;BME280_pressure;Samples;Min_cycle;Max_cycle;Signal;HPM_P1;HPM_P2
2022/09/13 00:01:40;;;;;;;4.03;3.50;;;;;;;18.80;82.32;101018.88;5009905;28;20105;-86
2022/09/13 00:04:05;;;;;;;3.80;3.50;;;;;;;18.80;82.38;101022.38;4999421;28;20045;-86
2022/09/13 00:06:31;;;;;;;3.80;3.50;;;;;;;18.80;82.30;101022.38;4963614;28;20217;-86
2022/09/13 00:08:57;;;;;;;4.22;3.10;;;;;;;18.79;82.31;101023.34;5014212;28;20369;-86
2022/09/13 00:11:27;;;;;;;3.95;3.65;;;;;;;18.78;82.41;101021.66;5000247;28;20109;-86
2022/09/13 00:13:54;;;;;;;3.63;3.42;;;;;;;18.78;82.40;101021.66;5034502;28;20048;-86
2022/09/13 00:16:20;;;;;;;8.18;3.78;;;;;;;18.77;82.63;101017.31;5014182;28;20040;-86
2022/09/13 00:18:46;;;;;;;3.75;3.40;;;;;;;18.76;82.68;101012.97;5040749;28;20060;-86
2022/09/13 00:21:17;;;;;;;5.00;3.60;;;;;;;18.78;82.61;101023.47;5013134;28;20030;-86
2022/09/13 00:23:47;;;;;;;3.95;3.13;;;;;;;18.76;82.72;101017.41;5041304;28;20029;-86
2022/09/13 00:26:16;;;;;;;3.40;3.20;;;;;;;18.76;82.61;101014.78;5018871;28;20040;-86
2022/09/13 00:28:44;;;;;;;4.57;3.53;;;;;;;18.75;82.79;101013.91;5014323;28;20036;-86
2022/09/13 00:31:10;;;;;;;4.43;3.55;;;;;;;18.75;82.75;101018.38;5042916;28;20033;-86
2022/09/13 00:33:36;;;;;;;3.70;3.38;;;;;;;18.74;82.79;101011.38;5049406;28;20017;-86
2022/09/13 00:36:09;;;;;;;3.42;3.22;;;;;;;18.75;82.86;101021.03;5030521;28;20247;-86
2022/09/13 00:38:36;;;;;;;3.60;3.30;;;;;;;18.75;82.84;101018.38;5045518;28;20132;-86
2022/09/13 00:41:04;;;;;;;4.50;3.42;;;;;;;18.73;82.75;101023.78;5049240;28;20041;-86
2022/09/13 00:43:52;;;;;;;5.30;3.90;;;;;;;18.73;83.00;101015.81;5047689;28;20126;-86
2022/09/13 00:46:31;;;;;;;3.95;3.63;;;;;;;18.73;82.81;101015.81;5041029;28;20083;-86
2022/09/13 00:49:04;;;;;;;3.67;3.30;;;;;;;18.72;82.75;101018.56;5022395;28;20034;-86
2022/09/13 00:51:30;;;;;;;5.30;3.30;;;;;;;18.72;82.65;101027.41;5034663;28;20302;-86
2022/09/13 00:53:58;;;;;;;4.00;3.65;;;;;;;18.72;82.74;101029.19;5031201;28;20033;-86
2022/09/13 00:56:38;;;;;;;4.13;3.72;;;;;;;18.71;82.64;101027.50;5010149;28;20382;-85
2022/09/13 00:59:15;;;;;;;3.92;3.55;;;;;;;18.71;82.77;101024.84;5021124;28;20178;-86
2022/09/13 01:05:17;;;;;;;4.07;3.67;;;;;;;18.69;82.90;101032.09;5019478;28;20042;-85
2022/09/13 01:07:43;;;;;;;4.38;4.07;;;;;;;18.68;82.73;101033.03;4985578;28;20033;-85
2022/09/13 01:10:09;;;;;;;4.38;3.97;;;;;;;18.68;82.91;101033.03;5013471;28;20058;-85
2022/09/13 01:12:58;;;;;;;6.35;5.00;;;;;;;18.66;82.77;101022.53;5014985;28;20045;-86
2022/09/13 01:15:24;;;;;;;5.13;4.72;;;;;;;18.67;82.85;101024.22;4998689;28;20324;-86
2022/09/13 01:17:51;;;;;;;6.00;5.45;;;;;;;18.68;82.76;101022.41;5016350;28;20105;-86
2022/09/13 01:20:17;;;;;;;6.20;5.45;;;;;;;18.66;82.78;101022.53;5013328;28;20100;-86
2022/09/13 01:23:06;;;;;;;6.32;5.60;;;;;;;18.67;82.74;101023.41;5016496;28;20277;-86
2022/09/13 01:25:41;;;;;;;6.38;5.78;;;;;;;18.66;82.81;101024.34;5023468;28;20256;-86
2022/09/13 01:28:45;;;;;;;5.90;5.50;;;;;;;18.65;82.80;101020.84;5000850;28;20036;-86
2022/09/13 01:31:17;;;;;;;7.88;5.78;;;;;;;18.64;82.73;101015.66;5001053;28;20236;-86
2022/09/13 01:34:15;;;;;;;5.63;5.15;;;;;;;18.64;82.88;101018.31;5019166;28;20312;-86
2022/09/13 01:36:59;;;;;;;5.85;5.22;;;;;;;18.64;82.84;101007.69;5011549;28;20045;-85
2022/09/13 01:39:48;;;;;;;7.03;5.80;;;;;;;18.63;82.79;101005.97;5018448;28;20218;-86
2022/09/13 01:42:27;;;;;;;5.47;4.97;;;;;;;18.63;82.98;101005.97;4997312;28;20321;-86
2022/09/13 01:45:40;;;;;;;5.25;4.85;;;;;;;18.61;83.03;101003.47;5019318;28;20080;-85
2022/09/13 01:48:56;;;;;;;5.90;5.40;;;;;;;18.60;83.12;101001.75;4976420;28;20046;-86
2022/09/13 01:51:38;;;;;;;6.07;5.20;;;;;;;18.59;83.29;100997.41;4961132;28;20300;-86
2022/09/13 01:54:13;;;;;;;6.68;5.13;;;;;;;18.59;83.26;100992.09;4960395;28;20217;-86
2022/09/13 01:56:49;;;;;;;5.45;4.95;;;;;;;18.58;83.22;100993.06;5013379;28;20333;-86
2022/09/13 01:59:42;;;;;;;5.20;4.80;;;;;;;18.57;83.17;100986.94;5020997;28;20025;-86
2022/09/13 02:02:12;;;;;;;5.75;5.22;;;;;;;18.58;83.37;100998.38;5011696;28;20053;-85
2022/09/13 02:04:46;;;;;;;6.60;5.22;;;;;;;18.57;83.29;100989.56;5019724;28;20044;-86
2022/09/13 02:07:29;;;;;;;5.50;5.00;;;;;;;18.57;83.39;100991.34;5019949;28;20105;-86
2022/09/13 02:10:01;;;;;;;5.93;5.43;;;;;;;18.55;83.63;100986.16;5002585;28;20104;-85
2022/09/13 02:12:30;;;;;;;5.85;5.10;;;;;;;18.56;83.76;100985.22;5019040;28;20041;-86
2022/09/13 02:15:16;;;;;;;6.57;5.78;;;;;;;18.56;83.70;100987.03;5018589;28;20224;-86
2022/09/13 02:18:05;;;;;;;5.82;5.28;;;;;;;18.56;83.75;100987.03;5021804;28;20265;-85
2022/09/13 02:20:34;;;;;;;5.50;5.10;;;;;;;18.55;83.62;100991.47;5009339;28;20348;-86
2022/09/13 02:23:09;;;;;;;5.88;5.38;;;;;;;18.54;83.83;100988.94;5016708;28;20276;-86
2022/09/13 02:25:38;;;;;;;5.80;5.40;;;;;;;18.55;83.60;100998.59;5013275;28;20141;-85
2022/09/13 02:28:08;;;;;;;6.18;5.20;;;;;;;18.54;83.67;100999.56;4980448;28;20048;-85
2022/09/13 02:30:39;;;;;;;6.70;5.93;;;;;;;18.53;83.77;101000.50;5009317;28;20056;-85
2022/09/13 02:33:11;;;;;;;6.43;5.30;;;;;;;18.53;83.93;101001.34;5017564;28;20022;-85
2022/09/13 02:35:51;;;;;;;6.68;5.88;;;;;;;18.52;84.08;101007.63;4999259;28;20041;-85
2022/09/13 02:38:25;;;;;;;5.80;5.15;;;;;;;18.52;83.97;101010.28;5000128;28;20017;-86
2022/09/13 02:41:20;;;;;;;6.22;5.72;;;;;;;18.52;83.80;101002.31;4991929;28;20038;-85
2022/09/13 02:43:52;;;;;;;6.13;5.55;;;;;;;18.52;83.74;100998.78;5016754;28;20104;-85
2022/09/13 02:46:34;;;;;;;6.00;5.55;;;;;;;18.51;83.97;100997.13;5017300;28;20093;-85
2022/09/13 02:49:12;;;;;;;5.57;5.07;;;;;;;18.51;84.21;100999.78;4992135;28;20116;-85
2022/09/13 02:51:50;;;;;;;6.00;5.50;;;;;;;18.50;83.81;100992.75;5014826;28;20199;-85
2022/09/13 02:54:43;;;;;;;6.10;5.38;;;;;;;18.49;83.88;100991.91;5010878;28;20021;-85
2022/09/13 02:57:35;;;;;;;6.07;5.47;;;;;;;18.48;83.89;100990.25;5009790;28;20367;-85
2022/09/13 03:00:01;;;;;;;7.07;4.70;;;;;;;18.49;84.04;100991.91;5016675;28;20100;-86
2022/09/13 03:02:31;;;;;;;7.05;5.13;;;;;;;18.48;84.20;100992.91;4999199;28;20116;-85
2022/09/13 03:04:58;;;;;;;5.90;5.40;;;;;;;18.48;83.96;100999.97;4998932;28;20353;-85
2022/09/13 03:07:23;;;;;;;6.07;5.55;;;;;;;18.47;84.06;101004.44;5016915;28;20317;-85
2022/09/13 03:09:56;;;;;;;6.07;5.47;;;;;;;18.47;84.11;101003.59;5015989;28;20286;-85
2022/09/13 03:12:40;;;;;;;5.47;5.07;;;;;;;18.47;84.13;100998.31;4999362;28;20062;-85
2022/09/13 03:15:46;;;;;;;6.25;5.45;;;;;;;18.46;84.31;100993.94;5016012;28;20269;-85
2022/09/13 03:18:51;;;;;;;5.82;5.32;;;;;;;18.46;84.35;101005.38;4931206;29;20073;-85
2022/09/13 03:21:17;;;;;;;5.80;5.28;;;;;;;18.45;84.49;101001.06;4913642;29;20043;-85
2022/09/13 03:23:45;;;;;;;6.03;5.53;;;;;;;18.45;84.42;100993.09;4991712;28;20049;-85
2022/09/13 03:26:41;;;;;;;6.23;5.63;;;;;;;18.45;84.47;100997.56;5004871;28;20282;-85
2022/09/13 03:29:34;;;;;;;5.70;5.20;;;;;;;18.44;84.51;101001.16;4996987;28;20026;-85
2022/09/13 03:32:05;;;;;;;6.13;5.63;;;;;;;18.44;84.37;100999.34;4998274;28;20260;-85
2022/09/13 03:34:31;;;;;;;6.40;5.78;;;;;;;18.42;84.45;101003.91;4980671;28;20432;-85
2022/09/13 03:37:07;;;;;;;6.05;5.55;;;;;;;18.42;84.50;101010.06;5001326;28;20049;-85
2022/09/13 03:39:44;;;;;;;5.95;5.45;;;;;;;18.42;84.60;101004.75;4996832;28;20041;-85
2022/09/13 03:42:23;;;;;;;6.47;5.97;;;;;;;18.41;84.55;101005.72;5000936;28;20336;-85
2022/09/13 03:44:52;;;;;;;6.35;5.70;;;;;;;18.41;84.44;101007.53;4998164;28;20033;-85
2022/09/13 03:47:20;;;;;;;6.05;5.53;;;;;;;18.41;84.57;101018.16;5001762;28;20044;-85
2022/09/13 03:49:46;;;;;;;6.82;5.65;;;;;;;18.41;84.72;101010.19;4997352;28;20034;-85
2022/09/13 03:52:12;;;;;;;6.10;5.38;;;;;;;18.40;84.68;101008.47;4982263;28;20333;-85
2022/09/13 03:54:38;;;;;;;5.65;5.15;;;;;;;18.39;84.67;101006.78;4978056;28;20062;-85
2022/09/13 03:57:09;;;;;;;5.95;5.45;;;;;;;18.38;84.78;101013.88;4983355;28;20232;-85
2022/09/13 03:59:37;;;;;;;5.95;5.40;;;;;;;18.38;84.42;101011.25;4996541;28;20030;-85
2022/09/13 04:02:04;;;;;;;5.82;5.43;;;;;;;18.38;84.71;101013.88;4979160;28;20034;-85
2022/09/13 04:04:30;;;;;;;8.40;5.85;;;;;;;18.38;84.72;101013.06;4996559;28;20046;-85
2022/09/13 04:06:56;;;;;;;6.25;5.65;;;;;;;18.37;84.58;101014.00;4982383;28;20034;-85
2022/09/13 04:09:22;;;;;;;7.25;6.22;;;;;;;18.37;84.50;101008.69;4978815;28;20065;-85
2022/09/13 04:11:47;;;;;;;6.35;5.85;;;;;;;18.36;84.57;101010.50;4984417;28;20026;-85
2022/09/13 04:14:14;;;;;;;8.35;6.13;;;;;;;18.36;84.59;101017.63;4978576;28;20026;-85
2022/09/13 04:16:40;;;;;;;6.32;5.82;;;;;;;18.34;84.50;101017.72;4982904;28;20525;-85
2022/09/13 04:19:06;;;;;;;6.60;6.00;;;;;;;18.33;84.44;101018.66;5021369;28;20354;-85
2022/09/13 04:21:32;;;;;;;6.85;6.22;;;;;;;18.33;84.54;101015.19;5015744;28;20281;-85
2022/09/13 04:23:58;;;;;;;7.13;6.32;;;;;;;18.31;84.39;101017.94;4998373;28;20054;-85
2022/09/13 04:26:24;;;;;;;7.07;6.35;;;;;;;18.30;84.67;101018.03;5000215;28;20340;-85
2022/09/13 04:28:52;;;;;;;7.00;6.32;;;;;;;18.29;84.56;101017.19;4993003;28;20032;-85
2022/09/13 04:31:17;;;;;;;7.05;6.38;;;;;;;18.30;84.38;101026.00;4999936;28;20037;-85
2022/09/13 04:33:42;;;;;;;7.18;6.50;;;;;;;18.29;84.42;101025.16;5002313;28;20041;-85
2022/09/13 04:36:08;;;;;;;6.85;6.28;;;;;;;18.28;84.67;101027.91;5003019;28;20045;-85
2022/09/13 04:38:33;;;;;;;7.03;6.30;;;;;;;18.27;84.52;101028.88;4998278;28;20045;-85
2022/09/13 04:40:59;;;;;;;7.38;6.68;;;;;;;18.25;84.34;101034.28;4999621;28;20049;-86
2022/09/13 04:43:24;;;;;;;7.60;6.72;;;;;;;18.25;84.34;101034.28;4999850;28;20044;-85
2022/09/13 04:45:50;;;;;;;7.32;6.63;;;;;;;18.23;84.34;101033.53;5010831;28;20061;-85
2022/09/13 04:48:15;;;;;;;7.53;6.63;;;;;;;18.23;84.44;101036.19;4997830;28;20032;-85
2022/09/13 04:50:41;;;;;;;8.85;6.53;;;;;;;18.22;84.34;101034.47;4997687;28;20049;-85
2022/09/13 04:53:07;;;;;;;8.05;6.35;;;;;;;18.20;84.37;101039.88;4997489;28;20034;-85
2022/09/13 04:55:32;;;;;;;7.15;6.55;;;;;;;18.20;84.36;101037.25;4984573;28;20127;-85
2022/09/13 04:57:58;;;;;;;9.13;6.70;;;;;;;18.19;84.72;101040.88;4983436;28;20274;-85
2022/09/13 05:00:24;;;;;;;8.15;6.70;;;;;;;18.18;84.24;101040.97;5000550;28;20108;-85
2022/09/13 05:02:54;;;;;;;7.78;7.00;;;;;;;18.18;84.45;101046.25;4981334;28;20305;-85
2022/09/13 05:05:19;;;;;;;7.78;7.07;;;;;;;18.16;84.60;101046.38;5017350;28;20341;-85
2022/09/13 05:07:44;;;;;;;10.15;7.15;;;;;;;18.15;84.42;101042.00;4997827;28;20045;-85
2022/09/13 05:10:10;;;;;;;11.60;7.30;;;;;;;18.15;84.82;101042.00;4961855;28;20385;-85
2022/09/13 05:12:35;;;;;;;8.32;6.97;;;;;;;18.15;84.79;101046.47;5029653;28;20113;-85
2022/09/13 05:15:00;;;;;;;10.45;7.88;;;;;;;18.14;84.58;101045.63;4979113;28;20107;-85
2022/09/13 05:17:28;;;;;;;10.32;6.82;;;;;;;18.14;84.58;101048.28;5000703;28;20048;-85
2022/09/13 05:19:54;;;;;;;8.77;7.32;;;;;;;18.15;84.79;101049.13;5005022;28;20089;-85
2022/09/13 05:22:19;;;;;;;10.68;7.38;;;;;;;18.14;84.62;101055.38;5015817;28;20049;-85
2022/09/13 05:24:45;;;;;;;10.30;6.85;;;;;;;18.14;84.73;101053.56;5000492;28;20285;-85
2022/09/13 05:27:10;;;;;;;10.10;7.72;;;;;;;18.13;84.59;101051.88;5020205;28;20057;-85
2022/09/13 05:29:35;;;;;;;11.18;7.88;;;;;;;18.13;84.61;101059.81;4990397;28;20277;-85
2022/09/13 05:32:01;;;;;;;11.77;8.60;;;;;;;18.14;84.81;101050.09;5000026;28;20049;-85
2022/09/13 05:34:26;;;;;;;10.90;8.40;;;;;;;18.14;84.65;101048.28;4989728;28;20054;-85
2022/09/13 05:36:52;;;;;;;13.00;8.43;;;;;;;18.12;84.69;101047.53;4997110;28;20386;-85
2022/09/13 05:39:17;;;;;;;11.00;8.65;;;;;;;18.13;84.49;101049.22;5001692;28;20130;-85
2022/09/13 05:41:43;;;;;;;10.57;8.85;;;;;;;18.14;84.66;101047.44;5014211;28;20091;-85
2022/09/13 05:44:09;;;;;;;17.40;9.40;;;;;;;18.12;84.81;101052.84;4993594;28;20037;-85
2022/09/13 05:46:34;;;;;;;12.35;9.07;;;;;;;18.14;84.65;101060.69;4997133;28;20049;-85
2022/09/13 05:49:00;;;;;;;13.45;9.15;;;;;;;18.12;84.67;101055.50;4998447;28;20041;-85
2022/09/13 05:51:26;;;;;;;13.98;10.18;;;;;;;18.13;84.89;101062.47;4994470;28;20390;-85
2022/09/13 05:53:53;;;;;;;16.33;10.82;;;;;;;18.13;85.03;101058.97;4990186;28;20083;-86
2022/09/13 05:56:21;;;;;;;14.52;10.43;;;;;;;18.12;84.96;101057.28;4979732;28;20034;-85
2022/09/13 05:58:48;;;;;;;11.93;9.68;;;;;;;18.12;84.86;101057.28;5012857;28;20092;-86
2022/09/13 06:01:16;;;;;;;14.00;9.45;;;;;;;18.12;84.75;101060.78;4997069;28;20049;-85
2022/09/13 06:03:41;;;;;;;14.38;9.77;;;;;;;18.11;84.85;101056.44;4993049;28;20105;-85
2022/09/13 06:06:07;;;;;;;14.90;10.23;;;;;;;18.11;84.89;101059.06;5013213;28;20048;-86
2022/09/13 06:08:34;;;;;;;10.88;9.73;;;;;;;18.11;84.40;101053.78;4997616;28;20029;-86
2022/09/13 06:11:02;;;;;;;13.68;9.57;;;;;;;18.12;84.53;101063.44;4990315;28;20116;-86
2022/09/13 06:13:28;;;;;;;13.70;10.30;;;;;;;18.12;84.67;101067.88;5009767;28;20038;-85
2022/09/13 06:15:56;;;;;;;12.32;9.95;;;;;;;18.14;84.44;101071.28;5011047;28;20365;-85
2022/09/13 06:18:22;;;;;;;13.85;10.18;;;;;;;18.14;84.45;101071.28;5013961;28;20288;-86
2022/09/13 06:20:47;;;;;;;13.40;9.60;;;;;;;18.14;84.78;101082.72;5018969;28;20248;-85
2022/09/13 06:23:14;;;;;;;10.70;9.27;;;;;;;18.15;84.78;101072.97;5021637;28;20109;-85
2022/09/13 06:25:40;;;;;;;10.48;9.00;;;;;;;18.13;84.86;101070.41;5019797;28;20291;-85
2022/09/13 06:28:06;;;;;;;13.52;9.30;;;;;;;18.14;84.82;101085.38;5014864;28;20406;-85
2022/09/13 06:30:31;;;;;;;10.65;9.55;;;;;;;18.16;84.61;101069.38;5018977;28;20141;-85
2022/09/13 06:32:57;;;;;;;10.35;9.25;;;;;;;18.15;84.50;101067.66;4996363;28;20035;-85
2022/09/13 06:35:22;;;;;;;9.85;8.65;;;;;;;18.16;84.61;101069.38;4997576;28;20045;-85
2022/09/13 06:37:48;;;;;;;13.63;11.43;;;;;;;18.16;84.61;101069.38;5009369;28;20355;-85
2022/09/13 06:40:13;;;;;;;11.40;9.65;;;;;;;18.18;85.52;101070.13;5000396;28;20229;-85
2022/09/13 06:42:39;;;;;;;11.60;10.13;;;;;;;18.19;85.48;101075.31;4994780;28;20034;-86
2022/09/13 06:45:05;;;;;;;12.80;10.23;;;;;;;18.19;85.89;101066.50;4985783;28;20069;-85
2022/09/13 06:47:31;;;;;;;12.77;10.35;;;;;;;18.20;86.34;101069.03;5014910;28;20033;-85
2022/09/13 06:49:57;;;;;;;9.73;8.82;;;;;;;18.21;86.32;101073.41;5017202;28;20094;-85
2022/09/13 06:52:23;;;;;;;10.98;9.52;;;;;;;18.22;86.67;101074.25;4982435;28;20044;-85
2022/09/13 06:54:48;;;;;;;9.30;8.40;;;;;;;18.24;87.49;101077.63;5015889;28;20042;-85
2022/09/13 06:57:14;;;;;;;8.20;7.43;;;;;;;18.26;87.88;101081.03;4998355;28;20434;-85
2022/09/13 06:59:39;;;;;;;7.85;6.47;;;;;;;18.30;87.98;101079.00;4999382;28;20076;-85
2022/09/13 07:02:05;;;;;;;7.70;7.00;;;;;;;18.32;89.26;101077.09;5015418;28;20097;-85
2022/09/13 07:04:30;;;;;;;6.38;5.75;;;;;;;18.34;89.44;101077.88;5015351;28;20072;-85
2022/09/13 07:06:56;;;;;;;8.75;5.75;;;;;;;18.36;89.83;101075.94;5013755;28;20253;-85
2022/09/13 07:09:22;;;;;;;6.20;5.70;;;;;;;18.38;89.97;101074.03;5016056;28;20204;-85
2022/09/13 07:11:49;;;;;;;7.10;4.82;;;;;;;18.40;89.86;101066.81;5015276;28;20333;-85
2022/09/13 07:14:17;;;;;;;4.70;4.30;;;;;;;18.41;90.00;101074.66;5016231;28;20084;-85
2022/09/13 07:16:45;;;;;;;4.47;4.07;;;;;;;18.45;89.94;101080.59;5014813;28;20091;-85
2022/09/13 07:19:15;;;;;;;4.85;4.45;;;;;;;18.47;90.21;101075.19;4998639;28;20322;-85
2022/09/13 07:21:41;;;;;;;5.07;4.57;;;;;;;18.49;90.96;101076.78;5016487;28;20041;-85
2022/09/13 07:24:08;;;;;;;5.15;4.07;;;;;;;18.51;90.51;101077.50;5018163;28;20060;-85
2022/09/13 07:26:33;;;;;;;3.40;3.17;;;;;;;18.54;91.09;101073.81;5015875;28;20385;-85
2022/09/13 07:29:01;;;;;;;5.55;3.58;;;;;;;18.58;90.89;101072.63;4998116;28;20037;-85
2022/09/13 07:31:30;;;;;;;3.45;3.00;;;;;;;18.59;91.02;101080.50;5019015;28;20233;-85
2022/09/13 07:33:57;;;;;;;7.03;2.95;;;;;;;18.62;90.66;101074.09;5013483;28;20282;-85
2022/09/13 07:36:24;;;;;;;2.50;2.30;;;;;;;18.64;90.48;101082.78;5013598;28;20056;-84
2022/09/13 07:38:50;;;;;;;4.15;2.75;;;;;;;18.65;90.27;101079.19;5013689;28;20036;-84
2022/09/13 07:41:20;;;;;;;3.47;2.80;;;;;;;18.67;90.67;101079.09;5005844;28;20105;-84
2022/09/13 07:43:46;;;;;;;3.55;2.17;;;;;;;18.69;90.78;101074.53;5014317;28;20033;-84
2022/09/13 07:46:16;;;;;;;2.78;2.20;;;;;;;18.71;91.09;101080.56;5013049;28;20042;-84
2022/09/13 07:48:43;;;;;;;4.82;2.30;;;;;;;18.73;91.17;101091.91;4999097;28;20037;-84
2022/09/13 07:51:13;;;;;;;3.05;2.40;;;;;;;18.75;91.37;101095.31;5000227;28;20036;-84
2022/09/13 07:53:40;;;;;;;5.18;2.63;;;;;;;18.78;91.57;101092.44;5013437;28;20503;-84
2022/09/13 07:56:09;;;;;;;5.90;2.58;;;;;;;18.78;91.49;101093.28;5000140;28;20406;-85
2022/09/13 07:58:36;;;;;;;4.45;2.50;;;;;;;18.80;91.62;101099.31;5013716;28;20037;-85
2022/09/13 08:01:14;;;;;;;3.95;2.30;;;;;;;18.82;92.04;101096.59;5014371;28;20053;-85
2022/09/13 08:03:40;;;;;;;5.93;2.15;;;;;;;18.84;91.82;101101.78;5013571;28;20353;-85
2022/09/13 08:06:07;;;;;;;4.13;1.90;;;;;;;18.85;91.81;101096.38;5015367;28;20240;-85
2022/09/13 08:08:33;;;;;;;3.50;2.00;;;;;;;18.86;91.41;101098.06;4995644;28;20045;-85
2022/09/13 08:11:00;;;;;;;3.67;1.80;;;;;;;18.89;91.12;101097.00;5015634;28;20181;-85
2022/09/13 08:13:27;;;;;;;3.92;2.28;;;;;;;18.90;90.72;101106.66;4996227;28;20029;-85
2022/09/13 08:15:53;;;;;;;3.15;2.30;;;;;;;18.91;90.85;101108.38;4995566;28;20049;-85
2022/09/13 08:18:19;;;;;;;3.63;2.00;;;;;;;18.92;90.41;101104.75;5013659;28;20394;-85
2022/09/13 08:20:44;;;;;;;4.00;2.20;;;;;;;18.93;90.27;101099.31;5013598;28;20037;-85
2022/09/13 08:23:11;;;;;;;2.53;2.00;;;;;;;18.94;90.25;101101.03;4995859;28;20061;-85
2022/09/13 08:25:37;;;;;;;3.30;2.25;;;;;;;18.96;90.00;101104.41;4979770;28;20050;-85
2022/09/13 08:28:08;;;;;;;3.40;2.35;;;;;;;19.00;89.93;101107.69;4979352;28;20033;-85
2022/09/13 08:30:35;;;;;;;6.07;2.75;;;;;;;19.01;89.67;101098.78;5013521;28;20236;-85
2022/09/13 08:33:05;;;;;;;2.72;2.42;;;;;;;19.02;89.42;101115.56;5012582;28;20034;-85
2022/09/13 08:35:32;;;;;;;2.65;2.38;;;;;;;19.02;89.29;101112.91;5016438;28;20061;-85
2022/09/13 08:37:57;;;;;;;3.20;1.92;;;;;;;19.03;89.07;101117.22;5014524;28;20092;-85
2022/09/13 08:40:26;;;;;;;1.80;1.70;;;;;;;19.03;88.66;101117.22;5013783;28;20402;-85
2022/09/13 08:42:51;;;;;;;;;;;;;;;19.04;88.42;101114.47;5013397;28;20038;-85
2022/09/13 08:45:17;;;;;;;1.87;1.70;;;;;;;19.06;88.25;101123.16;5000467;28;19916;-85
2022/09/13 08:47:49;;;;;;;2.00;1.85;;;;;;;19.07;88.33;101119.56;5021549;28;20030;-85
2022/09/13 08:50:26;;;;;;;3.22;1.80;;;;;;;19.08;88.25;101118.63;4995465;28;20026;-85
2022/09/13 08:53:23;;;;;;;1.60;1.40;;;;;;;19.11;88.13;101118.38;5012639;28;20034;-85
2022/09/13 08:55:55;;;;;;;3.15;1.60;;;;;;;19.11;87.82;101115.72;5012085;28;20045;-85
2022/09/13 08:58:43;;;;;;;2.13;1.40;;;;;;;19.14;87.72;101120.81;4994195;28;20041;-85
2022/09/13 09:01:42;;;;;;;1.20;1.10;;;;;;;19.14;87.08;101126.13;4988985;28;20018;-85
2022/09/13 09:04:33;;;;;;;7.03;1.80;;;;;;;19.17;86.77;101127.72;4969418;28;20045;-85
2022/09/13 09:07:17;;;;;;;1.95;1.38;;;;;;;19.16;86.92;101124.22;5016887;28;20029;-85
2022/09/13 09:10:25;;;;;;;3.20;1.50;;;;;;;19.17;86.79;101120.63;4995277;28;20072;-85
2022/09/13 09:13:08;;;;;;;1.40;1.30;;;;;;;19.20;86.73;101116.88;5008593;28;20033;-84
2022/09/13 09:15:42;;;;;;;2.67;1.10;;;;;;;19.20;86.61;101119.53;5017145;28;20228;-84
2022/09/13 09:18:27;;;;;;;1.98;1.10;;;;;;;19.23;86.28;101118.44;5015686;28;20083;-85
2022/09/13 09:20:55;;;;;;;6.57;1.67;;;;;;;19.25;86.57;101111.25;5012023;28;20037;-85
2022/09/13 09:23:28;;;;;;;2.45;1.08;;;;;;;19.27;86.13;101111.97;5012437;28;20045;-85
2022/09/13 09:26:18;;;;;;;4.05;1.45;;;;;;;19.29;86.43;101118.84;5020080;28;20080;-85
2022/09/13 09:28:52;;;;;;;1.17;1.02;;;;;;;19.33;86.23;101122.13;5015974;28;20076;-85
2022/09/13 09:31:24;;;;;;;0.80;0.80;;;;;;;19.38;86.06;101115.53;5017166;28;20029;-85
2022/09/13 09:34:21;;;;;;;1.25;1.10;;;;;;;19.42;85.48;101117.97;5010658;28;20061;-85
2022/09/13 09:36:59;;;;;;;1.27;0.80;;;;;;;19.44;85.19;101113.38;5006071;28;20240;-85
2022/09/13 09:39:31;;;;;;;3.13;1.20;;;;;;;19.46;84.61;101117.59;5016139;28;20056;-85
2022/09/13 09:41:57;;;;;;;2.35;1.20;;;;;;;19.49;85.15;101117.38;4993932;28;20405;-85
2022/09/13 09:44:26;;;;;;;3.13;0.80;;;;;;;19.52;84.68;101111.88;5015232;28;20280;-85
2022/09/13 09:47:15;;;;;;;1.20;0.93;;;;;;;19.54;84.50;101107.28;4994556;28;20337;-85
2022/09/13 09:50:09;;;;;;;2.85;0.95;;;;;;;19.55;84.57;101108.13;5001672;28;20259;-85
2022/09/13 09:52:56;;;;;;;4.15;1.00;;;;;;;19.55;84.19;101109.00;5012459;28;20269;-85
2022/09/13 09:55:27;;;;;;;1.75;0.88;;;;;;;19.55;84.11;101116.97;5016658;28;20063;-85
2022/09/13 09:58:03;;;;;;;5.05;1.45;;;;;;;19.54;84.11;101115.25;5022765;28;20117;-85
2022/09/13 10:00:32;;;;;;;3.70;1.13;;;;;;;19.55;84.32;101118.75;5022501;28;20047;-85
2022/09/13 10:03:26;;;;;;;5.68;1.25;;;;;;;19.54;84.52;101112.59;5017734;28;20369;-85
2022/09/13 10:06:13;;;;;;;2.50;0.90;;;;;;;19.55;84.29;101118.75;5014101;28;20528;-85
2022/09/13 10:08:42;;;;;;;2.30;1.00;;;;;;;19.55;84.10;101108.13;5018845;28;20300;-85
2022/09/13 10:11:08;;;;;;;;;;;;;;;19.55;83.41;101108.13;5019773;28;20075;-85
2022/09/13 10:13:37;;;;;;;2.88;0.80;;;;;;;19.58;83.70;101105.25;5017945;28;19917;-85
2022/09/13 10:16:06;;;;;;;;;;;;;;;19.59;83.30;101104.25;5018136;28;20084;-85
2022/09/13 10:18:35;;;;;;;2.42;1.20;;;;;;;19.60;83.46;101105.97;5015881;28;19960;-85
2022/09/13 10:21:16;;;;;;;1.90;0.82;;;;;;;19.62;83.10;101105.88;4998126;28;20042;-85
2022/09/13 10:23:43;;;;;;;2.25;1.05;;;;;;;19.61;82.80;101101.50;4984330;28;20221;-85
2022/09/13 10:26:15;;;;;;;1.83;0.90;;;;;;;19.60;82.65;101092.69;5015517;28;20147;-85
2022/09/13 10:28:44;;;;;;;2.60;0.80;;;;;;;19.60;82.24;101087.38;5014167;28;20041;-85
2022/09/13 10:31:18;;;;;;;1.75;1.00;;;;;;;19.59;81.96;101077.69;5015547;28;20040;-85
2022/09/13 10:33:58;;;;;;;3.33;1.08;;;;;;;19.60;81.86;101086.53;5015339;28;20344;-85
2022/09/13 10:36:28;;;;;;;5.03;1.13;;;;;;;19.62;81.73;101084.63;4996618;28;20343;-85
2022/09/13 10:39:00;;;;;;;5.07;1.27;;;;;;;19.62;81.74;101085.44;5015525;28;20037;-85
2022/09/13 10:41:29;;;;;;;2.58;1.00;;;;;;;19.63;81.49;101099.56;5015137;28;20038;-85
2022/09/13 10:44:00;;;;;;;2.42;0.93;;;;;;;19.64;80.99;101090.66;5015160;28;20033;-85
2022/09/13 10:46:33;;;;;;;5.18;1.00;;;;;;;19.63;81.07;101091.59;5015124;28;20075;-85
2022/09/13 10:48:59;;;;;;;5.25;1.33;;;;;;;19.64;81.05;101088.84;5014709;28;20133;-85
2022/09/13 10:51:25;;;;;;;3.72;0.95;;;;;;;19.66;80.60;101092.22;4998198;28;20033;-85
2022/09/13 10:53:57;;;;;;;1.77;1.00;;;;;;;19.66;80.87;101094.03;4996697;28;20053;-85
2022/09/13 10:56:25;;;;;;;1.38;1.08;;;;;;;19.67;80.50;101093.94;5015160;28;20399;-85
2022/09/13 10:59:14;;;;;;;2.15;1.00;;;;;;;19.70;80.21;101087.53;4990861;28;20038;-85
2022/09/13 11:01:52;;;;;;;2.33;0.77;;;;;;;19.70;79.74;101088.41;5014947;28;20041;-85
2022/09/13 11:04:36;;;;;;;3.03;0.98;;;;;;;19.72;79.42;101091.78;5007768;28;20029;-85
2022/09/13 11:07:07;;;;;;;4.07;1.33;;;;;;;19.73;79.35;101090.81;5012683;28;20037;-85
2022/09/13 11:09:39;;;;;;;0.90;0.90;;;;;;;19.75;79.59;101080.09;4995341;28;20229;-85
2022/09/13 11:12:20;;;;;;;3.15;1.20;;;;;;;19.78;79.46;101077.22;5012532;28;20375;-85
2022/09/13 11:15:14;;;;;;;1.25;1.13;;;;;;;19.79;78.90;101086.03;5009294;28;20041;-85
2022/09/13 11:17:59;;;;;;;2.50;1.23;;;;;;;19.78;78.51;101085.19;5008388;28;20483;-85
2022/09/13 11:20:49;;;;;;;2.00;1.20;;;;;;;19.78;78.46;101079.03;4994790;28;20049;-85
2022/09/13 11:23:37;;;;;;;1.25;0.90;;;;;;;19.79;78.35;101078.03;4977925;28;20072;-85
2022/09/13 11:26:38;;;;;;;3.30;1.20;;;;;;;19.79;77.58;101083.38;4995045;28;20042;-85
2022/09/13 11:29:09;;;;;;;2.53;1.00;;;;;;;19.81;77.70;101086.75;4998847;28;20053;-85
2022/09/13 11:31:45;;;;;;;2.65;1.10;;;;;;;19.82;77.69;101078.66;4998166;28;20046;-85
2022/09/13 11:34:15;;;;;;;1.75;1.00;;;;;;;19.83;77.18;101084.81;4989369;28;20031;-85
2022/09/13 11:36:55;;;;;;;2.20;0.80;;;;;;;19.84;76.96;101082.03;4995131;28;20042;-85
2022/09/13 11:39:39;;;;;;;2.92;1.10;;;;;;;19.85;76.67;101077.59;4994303;28;20148;-85
2022/09/13 11:42:25;;;;;;;1.77;0.88;;;;;;;19.85;75.80;101082.91;4998857;28;20323;-85
2022/09/13 11:45:00;;;;;;;3.22;0.85;;;;;;;19.84;76.18;101086.53;4978894;28;20078;-85
2022/09/13 11:47:46;;;;;;;1.80;0.90;;;;;;;19.85;76.46;101083.75;4997266;28;20042;-85
2022/09/13 11:50:38;;;;;;;1.75;1.02;;;;;;;19.85;76.27;101081.09;4985749;28;20314;-85
2022/09/13 11:53:40;;;;;;;3.20;1.10;;;;;;;19.87;75.53;101087.13;4987740;28;20057;-85